createdAt,value
2023-05-25T00:02:05.251Z,97.92
2023-05-25T00:06:07.464Z,97.25
2023-05-25T00:10:09.536Z,96.31
2023-05-25T00:14:11.606Z,96.51
2023-05-25T00:18:13.900Z,97.35
2023-05-25T00:22:16.084Z,97.30
2023-05-25T00:26:18.145Z,96.12
2023-05-25T00:30:20.457Z,97.87
2023-05-25T00:34:22.953Z,98.74
2023-05-25T00:38:25.019Z,99.50
2023-05-25T00:42:28.131Z,99.76
2023-05-25T00:46:31.078Z,100.00
2023-05-25T00:50:41.862Z,100.00
2023-05-25T00:54:47.871Z,100.00
2023-05-25T00:58:53.780Z,100.00
2023-05-25T01:02:59.356Z,100.00
2023-05-25T01:07:03.532Z,100.00
2023-05-25T01:11:07.377Z,100.00
2023-05-25T01:15:10.172Z,100.00
2023-05-25T01:19:12.379Z,100.00
2023-05-25T01:23:17.575Z,100.00
2023-05-25T01:27:25.035Z,100.00
2023-05-25T01:31:28.200Z,100.00
2023-05-25T01:35:31.336Z,100.00
2023-05-25T01:39:33.396Z,100.00
2023-05-25T01:43:36.631Z,100.00
2023-05-25T01:47:44.102Z,100.00
2023-05-25T01:52:16.105Z,100.00
2023-05-25T01:56:20.696Z,100.00
2023-05-25T02:00:23.174Z,100.00
2023-05-25T02:04:26.317Z,100.00
2023-05-25T02:08:29.715Z,100.00
2023-05-25T02:12:35.169Z,100.00
2023-05-25T02:16:37.267Z,100.00
2023-05-25T02:20:39.767Z,100.00
2023-05-25T02:24:41.873Z,100.00
2023-05-25T02:28:43.932Z,100.00
2023-05-25T02:32:46.141Z,100.00
2023-05-25T02:36:48.456Z,100.00
2023-05-25T02:40:50.602Z,100.00
2023-05-25T02:44:55.299Z,100.00
2023-05-25T02:48:58.952Z,100.00
2023-05-25T02:53:01.470Z,100.00
2023-05-25T02:57:04.711Z,100.00
2023-05-25T03:01:10.409Z,100.00
2023-05-25T03:05:16.256Z,100.00
2023-05-25T03:09:19.491Z,100.00
2023-05-25T03:13:24.238Z,100.00
2023-05-25T03:17:26.600Z,100.00
2023-05-25T03:21:28.987Z,100.00
2023-05-25T03:25:31.369Z,100.00
2023-05-25T03:29:35.246Z,100.00
2023-05-25T03:33:38.366Z,100.00
2023-05-25T03:37:40.580Z,100.00
2023-05-25T03:41:44.353Z,100.00
2023-05-25T03:45:47.217Z,100.00
2023-05-25T03:49:49.674Z,100.00
2023-05-25T03:53:51.816Z,100.00
2023-05-25T03:57:53.932Z,100.00
2023-05-25T04:01:56.593Z,100.00
2023-05-25T04:06:00.452Z,100.00
2023-05-25T04:10:03.735Z,100.00
2023-05-25T04:14:05.799Z,100.00
2023-05-25T04:18:11.380Z,100.00
2023-05-25T04:22:13.590Z,97.38
2023-05-25T04:32:14.519Z,74.46
2023-05-25T04:36:32.611Z,67.87
2023-05-25T04:40:36.422Z,62.91
2023-05-25T04:44:39.995Z,58.41
2023-05-25T04:48:43.708Z,58.47
2023-05-25T04:52:45.886Z,59.47
2023-05-25T04:56:48.919Z,56.63
2023-05-25T05:00:52.577Z,56.72
2023-05-25T05:04:55.161Z,61.41
2023-05-25T05:08:58.386Z,63.00
2023-05-25T05:13:00.527Z,61.32
2023-05-25T05:17:03.407Z,56.07
2023-05-25T05:21:05.717Z,53.38
2023-05-25T05:25:09.637Z,56.36
2023-05-25T05:29:12.136Z,60.94
2023-05-25T05:33:14.755Z,65.53
2023-05-25T05:37:21.828Z,67.60
2023-05-25T05:41:24.036Z,55.25
2023-05-25T05:45:26.485Z,46.93
2023-05-25T05:49:32.241Z,43.35
2023-05-25T05:53:36.442Z,38.86
2023-05-25T05:57:38.570Z,37.27
2023-05-25T06:01:42.621Z,37.50
2023-05-25T06:05:45.253Z,37.04
2023-05-25T06:09:47.623Z,34.65
2023-05-25T06:13:50.034Z,36.41
2023-05-25T06:17:52.596Z,38.86
2023-05-25T06:21:56.042Z,42.37
2023-05-25T06:26:02.915Z,46.30
2023-05-25T06:30:06.283Z,46.92
2023-05-25T06:34:08.570Z,48.84
2023-05-25T06:38:12.188Z,45.54
2023-05-25T06:42:14.338Z,41.02
2023-05-25T06:46:26.736Z,38.42
2023-05-25T06:50:28.942Z,37.32
2023-05-25T06:54:30.991Z,37.53
2023-05-25T06:58:33.124Z,38.55
2023-05-25T07:02:35.227Z,37.79
2023-05-25T07:06:37.339Z,38.65
2023-05-25T07:10:39.371Z,36.21
2023-05-25T07:14:41.523Z,41.59
2023-05-25T07:18:43.722Z,50.37
2023-05-25T07:22:47.181Z,56.62
2023-05-25T07:26:49.890Z,61.59
2023-05-25T07:30:51.993Z,65.78
2023-05-25T07:34:54.086Z,66.27
2023-05-25T07:38:56.276Z,69.10
2023-05-25T07:42:58.466Z,69.66
2023-05-25T07:47:00.579Z,70.24
2023-05-25T07:51:02.833Z,64.89
2023-05-25T07:55:06.995Z,64.50
2023-05-25T07:59:10.084Z,62.91
2023-05-25T08:03:12.369Z,63.32
2023-05-25T08:07:14.581Z,63.58
2023-05-25T08:11:17.114Z,62.36
2023-05-25T08:15:19.201Z,63.63
2023-05-25T08:19:21.381Z,61.47
2023-05-25T08:23:23.860Z,64.69
2023-05-25T08:27:26.009Z,65.29
2023-05-25T08:31:28.170Z,63.88
2023-05-25T08:35:30.344Z,64.92
2023-05-25T08:40:23.040Z,65.53
2023-05-25T08:44:26.979Z,61.82
2023-05-25T08:48:40.223Z,62.84
2023-05-25T08:52:46.990Z,63.17
2023-05-25T08:56:52.252Z,63.92
2023-05-25T09:00:58.480Z,65.68
2023-05-25T09:05:02.063Z,64.82
2023-05-25T09:09:29.126Z,62.46
2023-05-25T09:13:31.401Z,61.37
2023-05-25T09:17:35.308Z,60.18
2023-05-25T09:22:41.981Z,61.27
2023-05-25T09:26:48.765Z,58.76
2023-05-25T09:30:50.972Z,58.13
2023-05-25T09:34:55.244Z,60.17
2023-05-25T09:38:57.481Z,61.25
2023-05-25T09:42:59.774Z,60.87
2023-05-25T09:47:02.521Z,58.56
2023-05-25T09:51:07.014Z,59.70
2023-05-25T09:55:10.406Z,59.39
2023-05-25T09:59:12.532Z,57.80
2023-05-25T10:03:15.888Z,58.59
2023-05-25T10:07:18.693Z,56.56
2023-05-25T10:11:22.715Z,57.82
2023-05-25T10:15:26.159Z,57.08
2023-05-25T10:19:33.315Z,57.92
2023-05-25T10:23:44.582Z,56.72
2023-05-25T10:27:59.813Z,53.83
2023-05-25T10:32:03.736Z,55.19
2023-05-25T10:36:10.863Z,53.69
2023-05-25T10:40:15.252Z,54.26
2023-05-25T10:44:18.712Z,55.04
2023-05-25T10:48:20.847Z,54.59
2023-05-25T10:52:27.061Z,54.47
2023-05-25T10:56:29.147Z,55.67
2023-05-25T11:00:31.960Z,54.70
2023-05-25T11:04:37.397Z,53.17
2023-05-25T11:09:06.457Z,54.44
2023-05-25T11:13:37.871Z,54.47
2023-05-25T11:17:46.716Z,53.33
2023-05-25T11:21:49.348Z,53.67
2023-05-25T11:25:51.383Z,53.57
2023-05-25T11:29:54.952Z,56.64
2023-05-25T11:33:58.316Z,54.63
2023-05-25T11:38:01.286Z,55.08
2023-05-25T11:42:06.677Z,53.48
2023-05-25T11:46:12.608Z,54.06
2023-05-25T11:50:17.642Z,54.63
2023-05-25T11:54:30.275Z,52.47
2023-05-25T11:58:35.797Z,52.58
2023-05-25T12:02:39.139Z,53.76
2023-05-25T12:06:41.348Z,53.19
2023-05-25T12:10:51.384Z,51.15
2023-05-25T12:14:53.474Z,49.98
2023-05-25T12:18:56.280Z,52.79
2023-05-25T12:22:58.391Z,53.08
2023-05-25T12:27:02.318Z,51.52
2023-05-25T12:31:24.053Z,51.22
2023-05-25T12:35:26.351Z,51.29
2023-05-25T12:39:34.837Z,51.32
2023-05-25T12:43:38.845Z,50.54
2023-05-25T12:47:45.825Z,50.16
2023-05-25T12:51:47.861Z,48.30
2023-05-25T12:55:49.948Z,49.05
2023-05-25T12:59:56.210Z,47.10
2023-05-25T13:03:58.299Z,47.85
2023-05-25T13:08:01.752Z,45.45
2023-05-25T13:12:04.556Z,47.63
2023-05-25T13:16:07.510Z,46.16
2023-05-25T13:20:14.347Z,47.33
2023-05-25T13:24:16.661Z,48.06
2023-05-25T13:28:18.713Z,49.01
2023-05-25T13:32:20.858Z,49.36
2023-05-25T13:36:22.934Z,49.16
2023-05-25T13:40:24.958Z,50.24
2023-05-25T13:44:27.114Z,48.75
2023-05-25T13:48:30.006Z,49.11
2023-05-25T13:52:32.136Z,49.13
2023-05-25T13:56:34.229Z,50.60
2023-05-25T14:00:36.400Z,48.34
2023-05-25T14:04:38.846Z,50.03
2023-05-25T14:08:40.917Z,49.04
2023-05-25T14:12:43.120Z,49.20
2023-05-25T14:16:45.207Z,50.99
2023-05-25T14:20:47.522Z,47.91
2023-05-25T14:24:49.665Z,47.70
2023-05-25T14:28:51.881Z,46.40
2023-05-25T14:32:54.035Z,47.80
2023-05-25T14:36:56.167Z,47.27
2023-05-25T14:40:58.931Z,47.56
2023-05-25T14:45:01.054Z,46.32
2023-05-25T14:49:03.125Z,46.28
2023-05-25T14:53:05.625Z,47.58
2023-05-25T14:57:07.692Z,45.35
2023-05-25T15:01:09.828Z,47.85
2023-05-25T15:05:11.835Z,46.86
2023-05-25T15:09:15.745Z,48.60
2023-05-25T15:13:18.635Z,49.11
2023-05-25T15:17:20.683Z,48.15
2023-05-25T15:21:23.095Z,49.35
2023-05-25T15:29:33.548Z,47.19
2023-05-25T15:33:50.202Z,48.20
2023-05-25T15:37:56.198Z,49.47
2023-05-25T15:41:58.377Z,48.59
2023-05-25T15:46:00.527Z,48.13
2023-05-25T15:50:02.657Z,49.45
2023-05-25T15:54:04.887Z,48.55
2023-05-25T15:58:07.073Z,48.69
2023-05-25T16:02:09.253Z,49.97
2023-05-25T16:06:11.544Z,50.07
2023-05-25T16:10:13.622Z,51.10
2023-05-25T16:14:15.774Z,50.18
2023-05-25T16:18:17.901Z,49.63
2023-05-25T16:22:19.989Z,49.76
2023-05-25T16:26:22.430Z,49.29
2023-05-25T16:30:24.556Z,49.34
2023-05-25T16:34:26.805Z,48.88
2023-05-25T16:38:28.985Z,48.96
2023-05-25T16:42:31.077Z,49.92
2023-05-25T16:46:33.381Z,49.38
2023-05-25T16:50:35.436Z,49.54
2023-05-25T16:54:37.493Z,49.59
2023-05-25T16:58:39.545Z,49.89
2023-05-25T17:02:41.735Z,50.35
2023-05-25T17:06:43.813Z,50.60
2023-05-25T17:10:49.258Z,50.61
2023-05-25T17:14:51.349Z,50.28
2023-05-25T17:18:53.442Z,51.30
2023-05-25T17:22:55.964Z,50.94
2023-05-25T17:26:58.064Z,52.11
2023-05-25T17:31:00.240Z,52.78
2023-05-25T17:35:02.461Z,53.04
2023-05-25T17:39:05.662Z,53.50
2023-05-25T17:43:07.908Z,52.49
2023-05-25T17:47:11.169Z,52.51
2023-05-25T17:51:13.993Z,53.19
2023-05-25T17:55:16.094Z,54.18
2023-05-25T17:59:18.265Z,55.02
2023-05-25T18:03:20.401Z,56.44
2023-05-25T18:07:22.710Z,57.45
2023-05-25T18:11:26.040Z,58.78
2023-05-25T18:15:28.114Z,59.06
2023-05-25T18:19:30.237Z,59.94
2023-05-25T18:23:32.292Z,60.86
2023-05-25T18:27:34.390Z,61.14
2023-05-25T18:31:36.581Z,61.74
2023-05-25T18:35:39.162Z,62.88
2023-05-25T18:39:41.498Z,62.86
2023-05-25T18:43:43.532Z,63.13
2023-05-25T18:47:45.934Z,63.95
2023-05-25T18:51:47.998Z,64.04
2023-05-25T18:55:50.070Z,63.99
2023-05-25T18:59:52.149Z,63.71
2023-05-25T19:03:56.717Z,64.02
2023-05-25T19:08:00.654Z,64.50
2023-05-25T19:12:04.638Z,65.05
2023-05-25T19:22:06.625Z,66.62
2023-05-25T19:26:08.744Z,67.21
2023-05-25T19:30:11.198Z,68.00
2023-05-25T19:34:39.871Z,68.82
2023-05-25T19:38:42.495Z,69.41
2023-05-25T19:42:44.948Z,70.25
2023-05-25T19:46:47.123Z,71.34
2023-05-25T19:50:49.189Z,72.82
2023-05-25T19:54:51.350Z,74.31
2023-05-25T19:58:53.523Z,75.01
2023-05-25T20:02:55.899Z,75.91
2023-05-25T20:06:58.086Z,77.09
2023-05-25T20:11:00.166Z,76.23
2023-05-25T20:15:02.276Z,76.37
2023-05-25T20:19:07.348Z,76.69
2023-05-25T20:23:09.771Z,77.15
2023-05-25T20:27:13.173Z,78.17
2023-05-25T20:31:15.267Z,80.90
2023-05-25T20:35:17.425Z,79.68
2023-05-25T20:39:19.616Z,80.18
2023-05-25T20:43:21.746Z,78.97
2023-05-25T20:47:23.922Z,79.65
2023-05-25T20:51:26.015Z,79.52
2023-05-25T20:55:28.611Z,79.60
2023-05-25T20:59:31.629Z,79.92
2023-05-25T21:03:34.146Z,80.60
2023-05-25T21:07:36.400Z,80.78
2023-05-25T21:11:38.465Z,80.57
2023-05-25T21:15:40.797Z,81.01
2023-05-25T21:19:42.894Z,80.95
2023-05-25T21:23:44.971Z,81.29
2023-05-25T21:27:47.097Z,81.34
2023-05-25T21:31:49.490Z,81.57
2023-05-25T21:35:51.979Z,81.76
2023-05-25T21:39:54.071Z,82.12
2023-05-25T21:43:56.165Z,82.02
2023-05-25T21:47:58.266Z,82.30
2023-05-25T21:52:00.388Z,82.26
2023-05-25T21:56:02.558Z,82.72
2023-05-25T22:00:06.463Z,82.84
2023-05-25T22:04:14.530Z,82.96
2023-05-25T22:08:16.584Z,83.42
2023-05-25T22:12:20.178Z,83.32
2023-05-25T22:16:22.351Z,85.26
2023-05-25T22:20:24.586Z,84.71
2023-05-25T22:24:26.657Z,84.14
2023-05-25T22:28:28.738Z,84.06
2023-05-25T22:32:30.881Z,84.09
2023-05-25T22:36:32.980Z,84.06
2023-05-25T22:40:35.290Z,84.06
2023-05-25T22:44:37.689Z,84.70
2023-05-25T22:48:40.606Z,85.14
2023-05-25T22:52:43.035Z,85.66
2023-05-25T22:56:45.653Z,86.28
2023-05-25T23:00:47.697Z,85.93
2023-05-25T23:04:49.792Z,86.56
2023-05-25T23:08:51.827Z,87.22
2023-05-25T23:12:54.681Z,87.48
2023-05-25T23:16:56.802Z,87.84
2023-05-25T23:20:58.852Z,88.28
2023-05-25T23:25:01.082Z,88.25
2023-05-25T23:29:03.180Z,88.02
2023-05-25T23:33:08.180Z,88.04
2023-05-25T23:37:10.660Z,88.49
2023-05-25T23:41:12.853Z,88.84
2023-05-25T23:45:14.920Z,88.92
2023-05-25T23:49:17.007Z,89.09
2023-05-25T23:53:19.095Z,89.47
2023-05-25T23:57:21.117Z,90.16
